Time;durP1;ratioP1;P1;durP2;ratioP2;P2;SDS_P1;SDS_P2;PMS_P1;PMS_P2;Temp;Humidity;BMP_temperature;BMP_pressure;BME280_temperature;BME280_humidity;BME280_pressure;Samples;Min_cycle;Max_cycle;Signal;HPM_P1;HPM_P2
2024/02/02 00:00:02;;;;;;;67.53;37.63;;;;;;;;;;10513339;28;20985;-85
2024/02/02 00:05:09;;;;;;;64.10;35.97;;;;;;;;;;10518214;28;20497;-86
2024/02/02 00:10:11;;;;;;;59.65;34.10;;;;;;;;;;10517895;28;20453;-84
2024/02/02 00:15:15;;;;;;;60.97;34.78;;;;;;;;;;10526183;28;20403;-85
2024/02/02 00:20:18;;;;;;;63.17;35.80;;;;;;;;;;10507062;28;21083;-84
2024/02/02 00:25:21;;;;;;;73.72;38.72;;;;;;;;;;10510547;28;20807;-85
2024/02/02 00:30:23;;;;;;;76.45;41.17;;;;;;;;;;10508582;28;20423;-84
2024/02/02 00:35:27;;;;;;;74.53;39.80;;;;;;;;;;10509592;28;20517;-84
2024/02/02 00:40:30;;;;;;;72.33;39.70;;;;;;;;;;10519508;28;20447;-84
2024/02/02 00:45:32;;;;;;;73.07;39.28;;;;;;;;;;10524030;28;20413;-85
2024/02/02 00:50:36;;;;;;;69.60;38.92;;;;;;;;;;10521657;28;20778;-85
2024/02/02 00:55:38;;;;;;;69.90;39.25;;;;;;;;;;10519805;28;20821;-84
2024/02/02 01:00:41;;;;;;;70.93;39.47;;;;;;;;;;10519160;28;20410;-85
2024/02/02 01:05:44;;;;;;;66.97;38.50;;;;;;;;;;10516992;28;20494;-85
2024/02/02 01:10:47;;;;;;;71.47;39.92;;;;;;;;;;10517157;28;20416;-85
2024/02/02 01:15:49;;;;;;;70.33;39.67;;;;;;;;;;10518677;28;20558;-84
2024/02/02 01:20:53;;;;;;;70.45;39.80;;;;;;;;;;10519813;28;20408;-84
2024/02/02 01:25:55;;;;;;;75.35;40.97;;;;;;;;;;10526362;28;20454;-85
2024/02/02 01:30:58;;;;;;;75.32;41.13;;;;;;;;;;10518426;28;20501;-84
2024/02/02 01:36:02;;;;;;;75.80;41.40;;;;;;;;;;10553174;23;20450;-83
2024/02/02 01:41:06;;;;;;;77.97;41.83;;;;;;;;;;10561420;27;22081;-83
2024/02/02 01:46:09;;;;;;;74.55;42.10;;;;;;;;;;10567534;27;20400;-85
2024/02/02 01:51:12;;;;;;;73.30;41.33;;;;;;;;;;10561935;28;20479;-84
2024/02/02 01:56:15;;;;;;;77.77;43.17;;;;;;;;;;10562170;28;20403;-84
2024/02/02 02:01:18;;;;;;;76.20;42.53;;;;;;;;;;10562764;27;20406;-84
2024/02/02 02:06:21;;;;;;;77.75;42.97;;;;;;;;;;10566102;28;20410;-84
2024/02/02 02:11:24;;;;;;;76.45;42.00;;;;;;;;;;10557272;27;20455;-85
2024/02/02 02:16:27;;;;;;;72.05;40.92;;;;;;;;;;10563000;27;20464;-85
2024/02/02 02:21:30;;;;;;;71.77;40.13;;;;;;;;;;10554963;28;20404;-85
2024/02/02 02:26:33;;;;;;;74.93;41.22;;;;;;;;;;10558867;28;20483;-85
2024/02/02 02:31:35;;;;;;;76.77;41.43;;;;;;;;;;10552749;27;20520;-84
2024/02/02 02:36:39;;;;;;;72.22;41.05;;;;;;;;;;10558897;28;20430;-84
2024/02/02 02:41:42;;;;;;;70.53;39.15;;;;;;;;;;10567405;27;20414;-84
2024/02/02 02:46:44;;;;;;;70.13;39.93;;;;;;;;;;10564450;27;20821;-85
2024/02/02 02:51:48;;;;;;;62.72;36.58;;;;;;;;;;10555614;28;20446;-83
2024/02/02 02:56:50;;;;;;;72.57;38.92;;;;;;;;;;10556466;28;20399;-85
2024/02/02 03:01:52;;;;;;;68.93;38.22;;;;;;;;;;10566952;27;20788;-84
2024/02/02 03:06:56;;;;;;;67.43;37.88;;;;;;;;;;10547052;28;20430;-84
2024/02/02 03:11:59;;;;;;;71.15;39.00;;;;;;;;;;10559088;27;20447;-85
2024/02/02 03:17:01;;;;;;;67.45;38.45;;;;;;;;;;10563801;27;20411;-83
2024/02/02 03:22:06;;;;;;;71.50;37.88;;;;;;;;;;10557003;28;20459;-84
2024/02/02 03:27:08;;;;;;;68.03;37.95;;;;;;;;;;10560563;28;21004;-85
2024/02/02 03:32:11;;;;;;;66.75;38.17;;;;;;;;;;10562030;27;20447;-85
2024/02/02 03:37:15;;;;;;;67.13;38.97;;;;;;;;;;10553547;28;20464;-84
2024/02/02 03:42:17;;;;;;;74.68;39.22;;;;;;;;;;10562108;28;20880;-84
2024/02/02 03:47:20;;;;;;;66.67;38.00;;;;;;;;;;10559934;28;20408;-84
2024/02/02 03:52:24;;;;;;;69.13;37.72;;;;;;;;;;10558250;28;20867;-85
2024/02/02 03:57:26;;;;;;;70.78;39.25;;;;;;;;;;10561024;28;20408;-84
2024/02/02 04:02:29;;;;;;;65.93;37.63;;;;;;;;;;10566024;28;20508;-85
2024/02/02 04:07:32;;;;;;;68.47;37.85;;;;;;;;;;10551818;28;20480;-85
2024/02/02 04:12:35;;;;;;;59.53;35.63;;;;;;;;;;10553243;28;20451;-84
2024/02/02 04:17:37;;;;;;;62.27;35.43;;;;;;;;;;10557493;28;20749;-84
2024/02/02 04:22:41;;;;;;;65.43;35.70;;;;;;;;;;10555454;28;20399;-84
2024/02/02 04:27:43;;;;;;;59.80;34.22;;;;;;;;;;10559813;28;20473;-83
2024/02/02 04:32:46;;;;;;;61.03;34.50;;;;;;;;;;10544151;28;20542;-84
2024/02/02 04:37:49;;;;;;;57.70;33.03;;;;;;;;;;10553496;28;20395;-84
2024/02/02 04:42:52;;;;;;;58.90;32.60;;;;;;;;;;10562822;27;20872;-85
2024/02/02 04:47:54;;;;;;;56.27;33.10;;;;;;;;;;10559680;28;21072;-84
2024/02/02 04:52:58;;;;;;;55.72;33.60;;;;;;;;;;10555238;28;20446;-83
2024/02/02 04:58:00;;;;;;;57.08;31.85;;;;;;;;;;10557674;27;20958;-84
2024/02/02 05:03:03;;;;;;;51.63;31.93;;;;;;;;;;10560232;28;20973;-84
2024/02/02 05:08:08;;;;;;;56.80;31.65;;;;;;;;;;10562984;28;20395;-83
2024/02/02 05:13:10;;;;;;;51.73;32.03;;;;;;;;;;10555077;27;20857;-84
2024/02/02 05:18:14;;;;;;;57.67;31.92;;;;;;;;;;10559574;28;20866;-83
2024/02/02 05:23:17;;;;;;;57.50;32.42;;;;;;;;;;10559455;28;20458;-84
2024/02/02 05:28:20;;;;;;;58.90;34.03;;;;;;;;;;10553658;28;20758;-84
2024/02/02 05:33:22;;;;;;;55.97;31.70;;;;;;;;;;10555782;28;21176;-84
2024/02/02 05:38:26;;;;;;;48.80;28.05;;;;;;;;;;10547494;28;20427;-83
2024/02/02 05:43:28;;;;;;;53.33;29.23;;;;;;;;;;10556441;27;20796;-84
2024/02/02 05:48:31;;;;;;;48.27;27.27;;;;;;;;;;10560674;28;20974;-83
2024/02/02 05:53:35;;;;;;;45.13;25.20;;;;;;;;;;10555642;28;20497;-84
2024/02/02 05:58:37;;;;;;;43.65;26.58;;;;;;;;;;10556687;28;20457;-84
2024/02/02 06:03:39;;;;;;;43.65;25.77;;;;;;;;;;10547712;28;20762;-84
2024/02/02 06:08:43;;;;;;;40.20;23.37;;;;;;;;;;10548832;28;20495;-85
2024/02/02 06:13:45;;;;;;;37.80;22.03;;;;;;;;;;10560043;27;20450;-84
2024/02/02 06:18:48;;;;;;;34.80;21.48;;;;;;;;;;10544047;28;20408;-84
2024/02/02 06:23:52;;;;;;;32.78;19.23;;;;;;;;;;10545449;28;20424;-84
2024/02/02 06:28:54;;;;;;;35.15;19.40;;;;;;;;;;10559110;27;20460;-84
2024/02/02 06:33:57;;;;;;;31.42;18.55;;;;;;;;;;10548054;28;20444;-84
2024/02/02 06:39:01;;;;;;;33.97;20.23;;;;;;;;;;10549031;28;20404;-84
2024/02/02 06:44:03;;;;;;;33.00;17.70;;;;;;;;;;10555485;27;20884;-84
2024/02/02 06:49:05;;;;;;;32.67;18.40;;;;;;;;;;10547327;28;20479;-82
2024/02/02 06:54:09;;;;;;;54.10;26.07;;;;;;;;;;10550225;28;20520;-82
2024/02/02 06:59:12;;;;;;;32.25;17.95;;;;;;;;;;10546521;27;20431;-84
2024/02/02 07:04:15;;;;;;;28.23;15.63;;;;;;;;;;10550373;28;20914;-83
2024/02/02 07:09:31;;;;;;;25.88;14.55;;;;;;;;;;10550777;28;20403;-84
2024/02/02 07:14:44;;;;;;;24.58;14.63;;;;;;;;;;10560147;28;20834;-83
2024/02/02 07:19:47;;;;;;;28.52;14.25;;;;;;;;;;10556975;28;20436;-84
2024/02/02 07:24:51;;;;;;;23.65;14.35;;;;;;;;;;10548593;28;20392;-84
2024/02/02 07:29:53;;;;;;;21.98;13.27;;;;;;;;;;10548819;28;20404;-83
2024/02/02 07:34:57;;;;;;;23.50;13.83;;;;;;;;;;10556416;28;20416;-82
2024/02/02 07:40:01;;;;;;;21.67;12.50;;;;;;;;;;10554647;28;20420;-82
2024/02/02 07:45:03;;;;;;;21.33;13.32;;;;;;;;;;10561463;28;20432;-83
2024/02/02 07:50:07;;;;;;;23.08;12.73;;;;;;;;;;10558964;28;20726;-84
2024/02/02 07:55:11;;;;;;;25.48;13.40;;;;;;;;;;10560378;28;20455;-83
2024/02/02 08:00:14;;;;;;;28.50;14.50;;;;;;;;;;10553005;28;20437;-84
2024/02/02 08:05:17;;;;;;;28.15;16.75;;;;;;;;;;10551971;28;20486;-84
2024/02/02 08:10:20;;;;;;;27.27;17.47;;;;;;;;;;10551645;28;20430;-84
2024/02/02 08:15:23;;;;;;;27.90;15.83;;;;;;;;;;10561496;27;20517;-84
2024/02/02 08:20:25;;;;;;;24.27;16.30;;;;;;;;;;10564485;27;20934;-80
2024/02/02 08:25:29;;;;;;;33.75;20.75;;;;;;;;;;10564447;27;20414;-80
2024/02/02 08:30:32;;;;;;;33.72;19.52;;;;;;;;;;10570390;27;20402;-81
2024/02/02 08:35:35;;;;;;;30.43;18.47;;;;;;;;;;10551872;27;20896;-85
2024/02/02 08:40:42;;;;;;;28.50;17.27;;;;;;;;;;10555972;27;20405;-84
2024/02/02 08:46:06;;;;;;;29.17;16.07;;;;;;;;;;10548822;27;20581;-84
2024/02/02 08:51:53;;;;;;;26.52;15.68;;;;;;;;;;10545285;28;20457;-85
2024/02/02 08:57:25;;;;;;;29.85;17.65;;;;;;;;;;10546847;27;20405;-84
2024/02/02 09:03:00;;;;;;;34.83;19.87;;;;;;;;;;10550155;27;20438;-83
2024/02/02 09:08:11;;;;;;;32.42;19.90;;;;;;;;;;10545079;28;20461;-83
2024/02/02 09:13:21;;;;;;;32.33;18.77;;;;;;;;;;10559926;27;20517;-82
2024/02/02 09:18:32;;;;;;;34.78;18.75;;;;;;;;;;10552866;27;21070;-82
2024/02/02 09:23:36;;;;;;;32.28;19.27;;;;;;;;;;10565390;27;20516;-82
2024/02/02 09:28:44;;;;;;;32.42;18.33;;;;;;;;;;10574313;27;20453;-83
2024/02/02 09:33:48;;;;;;;27.58;16.98;;;;;;;;;;10556421;28;20501;-84
2024/02/02 09:38:57;;;;;;;30.85;18.52;;;;;;;;;;10579677;27;20403;-84
2024/02/02 09:44:12;;;;;;;30.30;17.33;;;;;;;;;;10563507;27;20419;-84
2024/02/02 09:49:23;;;;;;;27.80;17.42;;;;;;;;;;10554260;27;20440;-83
2024/02/02 09:54:35;;;;;;;26.13;16.02;;;;;;;;;;10535888;28;20529;-84
2024/02/02 09:59:50;;;;;;;24.67;15.37;;;;;;;;;;10554979;27;20967;-83
2024/02/02 10:05:06;;;;;;;21.15;13.55;;;;;;;;;;10548671;27;20469;-83
2024/02/02 10:10:42;;;;;;;23.40;13.03;;;;;;;;;;10553573;27;20404;-83
2024/02/02 10:15:58;;;;;;;28.53;17.00;;;;;;;;;;10558403;27;20505;-81
2024/02/02 10:21:05;;;;;;;28.47;17.73;;;;;;;;;;10562133;27;20999;-83
2024/02/02 10:26:20;;;;;;;29.52;16.55;;;;;;;;;;10557991;27;20559;-85
2024/02/02 10:31:43;;;;;;;21.63;14.07;;;;;;;;;;10554729;27;20554;-84
2024/02/02 10:37:08;;;;;;;25.75;14.40;;;;;;;;;;10552059;28;20972;-83
2024/02/02 10:42:20;;;;;;;24.02;13.98;;;;;;;;;;10545392;28;20525;-84
2024/02/02 10:47:39;;;;;;;25.63;13.20;;;;;;;;;;10540628;27;20644;-83
2024/02/02 10:52:55;;;;;;;24.48;14.80;;;;;;;;;;10539067;28;20441;-84
2024/02/02 10:58:06;;;;;;;26.07;14.50;;;;;;;;;;10551858;27;20409;-83
2024/02/02 11:03:22;;;;;;;23.07;13.37;;;;;;;;;;10537377;28;20884;-83
2024/02/02 11:08:29;;;;;;;24.03;13.30;;;;;;;;;;10537182;28;20416;-83
2024/02/02 11:13:38;;;;;;;27.33;12.47;;;;;;;;;;10545396;27;20517;-82
2024/02/02 11:19:02;;;;;;;24.52;14.32;;;;;;;;;;10543437;28;20761;-82
2024/02/02 11:24:15;;;;;;;27.27;15.07;;;;;;;;;;10546276;28;20434;-82
2024/02/02 11:29:29;;;;;;;26.20;16.13;;;;;;;;;;10548118;28;20496;-82
2024/02/02 11:34:43;;;;;;;24.97;14.03;;;;;;;;;;10553287;28;20459;-82
2024/02/02 11:39:59;;;;;;;29.13;16.23;;;;;;;;;;10548989;28;20410;-82
2024/02/02 11:45:02;;;;;;;29.35;17.35;;;;;;;;;;10554766;28;20411;-81
2024/02/02 11:50:07;;;;;;;23.95;14.80;;;;;;;;;;10553520;28;20474;-82
2024/02/02 11:55:16;;;;;;;22.15;12.68;;;;;;;;;;10556993;28;20451;-82
2024/02/02 12:00:28;;;;;;;27.85;13.20;;;;;;;;;;10563703;27;20453;-82
2024/02/02 12:05:46;;;;;;;22.48;12.65;;;;;;;;;;10553734;28;20438;-82
2024/02/02 12:10:49;;;;;;;26.45;13.77;;;;;;;;;;10558471;28;20404;-81
2024/02/02 12:15:52;;;;;;;22.50;14.68;;;;;;;;;;10562122;27;20499;-78
2024/02/02 12:20:56;;;;;;;23.30;13.57;;;;;;;;;;10555952;28;20403;-82
2024/02/02 12:26:00;;;;;;;21.20;14.87;;;;;;;;;;10552246;28;20412;-83
2024/02/02 12:31:03;;;;;;;23.90;14.77;;;;;;;;;;10552778;27;20458;-83
2024/02/02 12:36:08;;;;;;;49.60;24.83;;;;;;;;;;10552245;27;20510;-83
2024/02/02 12:41:10;;;;;;;22.92;14.25;;;;;;;;;;10565938;28;20989;-84
2024/02/02 12:46:13;;;;;;;42.17;23.07;;;;;;;;;;10558103;27;20813;-83
2024/02/02 12:51:18;;;;;;;45.60;24.00;;;;;;;;;;10555486;28;20522;-82
2024/02/02 12:56:20;;;;;;;30.57;16.20;;;;;;;;;;10559388;28;20454;-81
2024/02/02 13:01:24;;;;;;;29.15;14.18;;;;;;;;;;10559039;27;20403;-82
2024/02/02 13:06:28;;;;;;;27.15;14.60;;;;;;;;;;10558482;28;20404;-82
2024/02/02 13:11:31;;;;;;;22.37;13.53;;;;;;;;;;10549393;28;20507;-85
2024/02/02 13:16:34;;;;;;;26.00;13.33;;;;;;;;;;10561026;27;20916;-85
2024/02/02 13:21:39;;;;;;;24.48;12.52;;;;;;;;;;10556732;28;20499;-82
2024/02/02 13:26:43;;;;;;;19.88;12.20;;;;;;;;;;10552049;28;20953;-85
2024/02/02 13:31:48;;;;;;;29.50;14.23;;;;;;;;;;10566352;27;20435;-84
2024/02/02 13:36:52;;;;;;;24.90;13.33;;;;;;;;;;10565583;28;20512;-85
2024/02/02 13:42:00;;;;;;;24.58;14.18;;;;;;;;;;10581974;28;20894;-85
2024/02/02 13:47:03;;;;;;;25.00;13.75;;;;;;;;;;10563581;27;20505;-83
2024/02/02 13:52:07;;;;;;;39.75;29.63;;;;;;;;;;10560617;27;20539;-85
2024/02/02 13:57:11;;;;;;;25.30;15.00;;;;;;;;;;10571895;27;20978;-85
2024/02/02 14:02:14;;;;;;;20.95;12.50;;;;;;;;;;10560980;27;20829;-85
2024/02/02 14:07:18;;;;;;;19.88;12.35;;;;;;;;;;10551870;28;20442;-84
2024/02/02 14:12:20;;;;;;;22.60;13.33;;;;;;;;;;10561543;27;20937;-86
2024/02/02 14:17:23;;;;;;;20.73;13.07;;;;;;;;;;10567533;27;20448;-84
2024/02/02 14:22:27;;;;;;;21.15;14.05;;;;;;;;;;10558722;28;20471;-85
2024/02/02 14:27:37;;;;;;;22.27;14.60;;;;;;;;;;10554712;28;20418;-85
2024/02/02 14:32:39;;;;;;;26.98;17.02;;;;;;;;;;10552243;27;20403;-82
2024/02/02 14:37:43;;;;;;;28.50;18.33;;;;;;;;;;10560582;28;20420;-84
2024/02/02 14:42:45;;;;;;;33.10;20.17;;;;;;;;;;10553525;27;20721;-83
2024/02/02 14:47:49;;;;;;;44.97;23.10;;;;;;;;;;10550359;28;20923;-83
2024/02/02 14:52:53;;;;;;;37.65;21.92;;;;;;;;;;10553613;28;20744;-83
2024/02/02 14:57:59;;;;;;;35.10;20.88;;;;;;;;;;10552253;28;20886;-83
2024/02/02 15:03:01;;;;;;;36.65;20.50;;;;;;;;;;10542638;28;20418;-82
2024/02/02 15:08:06;;;;;;;36.73;20.53;;;;;;;;;;10546799;28;20406;-84
2024/02/02 15:13:10;;;;;;;28.27;18.30;;;;;;;;;;10539816;27;20435;-81
2024/02/02 15:18:12;;;;;;;55.97;32.77;;;;;;;;;;10537001;28;20416;-84
2024/02/02 15:23:16;;;;;;;27.50;17.27;;;;;;;;;;10531811;28;20436;-84
2024/02/02 15:28:19;;;;;;;31.27;17.10;;;;;;;;;;10559213;27;20434;-83
2024/02/02 15:33:21;;;;;;;33.37;18.87;;;;;;;;;;10550205;28;20508;-84
2024/02/02 15:38:25;;;;;;;36.47;19.60;;;;;;;;;;10537033;28;20503;-83
2024/02/02 15:43:27;;;;;;;29.40;16.98;;;;;;;;;;10548432;28;20451;-84
2024/02/02 15:48:30;;;;;;;34.35;18.40;;;;;;;;;;10542362;28;20461;-83
2024/02/02 15:53:33;;;;;;;32.00;17.58;;;;;;;;;;10557039;28;20438;-84
2024/02/02 15:58:36;;;;;;;34.57;17.97;;;;;;;;;;10552018;28;20888;-82
2024/02/02 16:03:38;;;;;;;32.80;18.63;;;;;;;;;;10552040;28;20548;-82
2024/02/02 16:08:42;;;;;;;39.67;19.63;;;;;;;;;;10542548;28;20438;-84
2024/02/02 16:13:44;;;;;;;39.33;19.00;;;;;;;;;;10550789;28;20479;-83
2024/02/02 16:18:47;;;;;;;37.60;19.58;;;;;;;;;;10542685;28;20491;-84
2024/02/02 16:23:51;;;;;;;39.40;19.27;;;;;;;;;;10553881;28;20515;-84
2024/02/02 16:28:54;;;;;;;39.00;20.20;;;;;;;;;;10567680;28;20849;-85
2024/02/02 16:33:56;;;;;;;44.25;18.67;;;;;;;;;;10551123;28;20870;-84
2024/02/02 16:39:00;;;;;;;41.72;20.60;;;;;;;;;;10546993;28;20444;-88
2024/02/02 16:44:02;;;;;;;40.03;19.35;;;;;;;;;;10564292;27;20971;-87
2024/02/02 16:49:04;;;;;;;40.57;20.87;;;;;;;;;;10552940;28;20463;-83
2024/02/02 16:54:09;;;;;;;35.33;20.67;;;;;;;;;;10549536;28;20416;-86
2024/02/02 16:59:12;;;;;;;44.45;21.50;;;;;;;;;;10562937;27;20538;-86
2024/02/02 17:04:14;;;;;;;37.40;21.40;;;;;;;;;;10555649;27;20426;-86
2024/02/02 17:09:18;;;;;;;42.53;22.20;;;;;;;;;;10560105;28;21069;-86
2024/02/02 17:14:20;;;;;;;39.97;20.73;;;;;;;;;;10562121;27;20451;-85
2024/02/02 17:19:22;;;;;;;43.28;23.70;;;;;;;;;;10545652;28;21051;-86
2024/02/02 17:24:26;;;;;;;40.33;22.00;;;;;;;;;;10552603;27;20805;-86
2024/02/02 17:29:29;;;;;;;43.20;22.90;;;;;;;;;;10558570;27;20536;-84
2024/02/02 17:34:32;;;;;;;47.88;24.90;;;;;;;;;;10554687;27;20809;-85
2024/02/02 17:39:39;;;;;;;48.17;24.95;;;;;;;;;;10543470;28;20449;-83
2024/02/02 17:44:41;;;;;;;50.93;26.37;;;;;;;;;;10560572;27;20462;-84
2024/02/02 17:49:44;;;;;;;53.03;27.38;;;;;;;;;;10546313;28;21429;-85
2024/02/02 17:54:48;;;;;;;71.38;34.47;;;;;;;;;;10552413;27;20989;-83
2024/02/02 17:59:50;;;;;;;63.88;33.53;;;;;;;;;;10554489;27;20468;-83
2024/02/02 18:04:52;;;;;;;59.92;34.50;;;;;;;;;;10554862;27;20440;-84
2024/02/02 18:09:56;;;;;;;67.17;35.23;;;;;;;;;;10545771;28;20460;-83
2024/02/02 18:14:58;;;;;;;59.67;33.40;;;;;;;;;;10553170;27;20689;-82
2024/02/02 18:20:01;;;;;;;53.90;28.75;;;;;;;;;;10541928;28;20483;-86
2024/02/02 18:25:05;;;;;;;60.47;30.25;;;;;;;;;;10531423;27;20560;-86
2024/02/02 18:30:09;;;;;;;65.07;35.53;;;;;;;;;;10544021;27;20466;-84
2024/02/02 18:35:12;;;;;;;57.70;31.50;;;;;;;;;;10511688;27;20442;-84
2024/02/02 18:40:18;;;;;;;58.75;33.22;;;;;;;;;;10500322;28;20451;-84
2024/02/02 18:45:20;;;;;;;58.83;32.28;;;;;;;;;;10497496;28;20517;-85
2024/02/02 18:50:23;;;;;;;60.47;31.80;;;;;;;;;;10480901;28;20467;-83
2024/02/02 18:55:27;;;;;;;54.55;31.25;;;;;;;;;;10480466;28;20502;-84
2024/02/02 19:00:30;;;;;;;60.75;30.27;;;;;;;;;;10499586;28;20852;-83
2024/02/02 19:05:33;;;;;;;56.80;31.47;;;;;;;;;;10512984;28;20454;-84
2024/02/02 19:10:37;;;;;;;55.60;30.88;;;;;;;;;;10518831;28;21195;-83
2024/02/02 19:15:39;;;;;;;54.63;29.90;;;;;;;;;;10506876;28;20468;-83
2024/02/02 19:20:41;;;;;;;52.75;29.25;;;;;;;;;;10503869;28;20432;-84
2024/02/02 19:25:46;;;;;;;58.72;30.13;;;;;;;;;;10495883;28;20432;-83
2024/02/02 19:30:52;;;;;;;56.63;29.42;;;;;;;;;;10510769;28;20510;-84
2024/02/02 19:35:55;;;;;;;54.00;28.88;;;;;;;;;;10544379;27;20453;-85
2024/02/02 19:40:58;;;;;;;52.20;29.00;;;;;;;;;;10553071;28;20461;-84
2024/02/02 19:46:01;;;;;;;54.25;29.63;;;;;;;;;;10543959;28;20591;-84
2024/02/02 19:51:05;;;;;;;58.07;29.97;;;;;;;;;;10538087;28;20556;-84
2024/02/02 19:56:11;;;;;;;54.42;29.73;;;;;;;;;;10543582;28;20527;-86
2024/02/02 20:01:14;;;;;;;53.00;29.05;;;;;;;;;;10548750;28;20442;-86
2024/02/02 20:06:18;;;;;;;58.75;30.17;;;;;;;;;;10555049;27;20465;-86
2024/02/02 20:11:24;;;;;;;56.17;30.77;;;;;;;;;;10550311;28;20446;-85
2024/02/02 20:16:27;;;;;;;56.28;30.83;;;;;;;;;;10543520;27;20549;-84
2024/02/02 20:21:29;;;;;;;51.90;29.63;;;;;;;;;;10552867;28;21065;-85
2024/02/02 20:26:33;;;;;;;53.05;28.65;;;;;;;;;;10558920;27;20519;-85
2024/02/02 20:31:36;;;;;;;51.87;30.00;;;;;;;;;;10562527;27;20460;-85
2024/02/02 20:36:38;;;;;;;56.28;29.95;;;;;;;;;;10559513;27;20469;-84
2024/02/02 20:41:42;;;;;;;57.30;31.52;;;;;;;;;;10561462;27;20414;-85
2024/02/02 20:46:44;;;;;;;56.80;29.58;;;;;;;;;;10541565;27;20472;-86
2024/02/02 20:51:48;;;;;;;52.67;30.73;;;;;;;;;;10548397;28;20474;-86
2024/02/02 20:56:51;;;;;;;56.28;31.13;;;;;;;;;;10554256;28;20519;-86
2024/02/02 21:01:54;;;;;;;59.03;30.83;;;;;;;;;;10555209;27;20440;-86
2024/02/02 21:06:56;;;;;;;56.53;31.48;;;;;;;;;;10546596;28;20517;-87
2024/02/02 21:12:00;;;;;;;60.63;33.73;;;;;;;;;;10539933;28;20428;-86
2024/02/02 21:17:03;;;;;;;62.87;35.43;;;;;;;;;;10549719;27;20447;-87
2024/02/02 21:22:06;;;;;;;61.20;33.30;;;;;;;;;;10554794;28;20411;-87
2024/02/02 21:27:11;;;;;;;59.10;34.60;;;;;;;;;;10565028;28;20909;-87
2024/02/02 21:32:13;;;;;;;59.22;34.47;;;;;;;;;;10569068;27;20470;-87
2024/02/02 21:37:16;;;;;;;62.40;34.33;;;;;;;;;;10549175;28;21005;-87
2024/02/02 21:42:20;;;;;;;74.00;38.30;;;;;;;;;;10557999;28;20451;-87
2024/02/02 21:47:22;;;;;;;68.32;36.20;;;;;;;;;;10557791;27;20407;-86
2024/02/02 21:52:24;;;;;;;68.85;35.65;;;;;;;;;;10551446;28;20416;-86
2024/02/02 21:57:28;;;;;;;67.90;36.03;;;;;;;;;;10563964;28;21019;-85
2024/02/02 22:02:30;;;;;;;66.18;37.22;;;;;;;;;;10562349;28;20460;-86
2024/02/02 22:07:33;;;;;;;62.30;34.33;;;;;;;;;;10549072;28;20483;-87
2024/02/02 22:12:37;;;;;;;62.90;34.35;;;;;;;;;;10560377;28;20792;-87
2024/02/02 22:17:39;;;;;;;62.05;36.08;;;;;;;;;;10569935;27;20451;-87
2024/02/02 22:22:41;;;;;;;62.42;33.70;;;;;;;;;;10556678;28;20415;-87
2024/02/02 22:27:45;;;;;;;64.70;35.90;;;;;;;;;;10570595;27;20414;-87
2024/02/02 22:32:48;;;;;;;62.30;35.55;;;;;;;;;;10568767;27;20482;-86
2024/02/02 22:37:51;;;;;;;89.32;44.80;;;;;;;;;;10558892;28;20442;-87
2024/02/02 22:42:55;;;;;;;64.73;35.30;;;;;;;;;;10561526;27;20985;-87
2024/02/02 22:47:57;;;;;;;78.90;38.87;;;;;;;;;;10555949;28;20847;-87
2024/02/02 22:53:00;;;;;;;65.57;33.60;;;;;;;;;;10545259;28;20415;-87
2024/02/02 22:58:04;;;;;;;66.28;33.97;;;;;;;;;;10557695;27;20446;-87
2024/02/02 23:03:06;;;;;;;60.63;33.87;;;;;;;;;;10550092;28;20773;-87
2024/02/02 23:08:09;;;;;;;53.88;32.88;;;;;;;;;;10548370;28;20423;-86
2024/02/02 23:13:13;;;;;;;56.03;32.17;;;;;;;;;;10554614;27;20411;-87
2024/02/02 23:18:16;;;;;;;47.22;28.05;;;;;;;;;;10557671;28;20432;-87
2024/02/02 23:23:18;;;;;;;53.28;29.42;;;;;;;;;;10561076;28;20400;-87
2024/02/02 23:28:22;;;;;;;53.13;28.10;;;;;;;;;;10554792;27;20436;-87
2024/02/02 23:33:25;;;;;;;51.42;27.63;;;;;;;;;;10540759;28;21001;-86
2024/02/02 23:38:27;;;;;;;46.97;26.48;;;;;;;;;;10552957;28;20450;-85
2024/02/02 23:43:31;;;;;;;45.77;26.53;;;;;;;;;;10555923;28;20410;-86
2024/02/02 23:48:33;;;;;;;48.67;26.88;;;;;;;;;;10573595;28;20406;-86
2024/02/02 23:53:36;;;;;;;46.30;27.20;;;;;;;;;;10573876;28;20398;-87
2024/02/02 23:58:41;;;;;;;47.83;26.60;;;;;;;;;;10577205;27;20896;-86
